AIR220 EDDF-EBAW
Flight info
| Callsign | AIR220 |
|---|---|
| Flight time | 0h 43m |
| Altitude | 22000 |
| Route | SOBRA2L SOBRA Y180 RUDOT DCT LNO DCT ULTAV DCT ERPUD |
| Aircraft | A20N/M-SDE2E3FGHIRWXY/LB1 |
Departure
| Time | 2026-04-15 08:09 |
|---|---|
| Airport | Frankfurt Main Airport (EDDF) |
Arrival
| Time | 2026-04-15 08:53 |
|---|---|
| Airport | Antwerp International Airport (Deurne) (EBAW) |
| Time | Latitude | Longitude | Altitude | Speed | Heading |
|---|---|---|---|---|---|
| 2026-04-15 07:47 | 50.03839 | 8.54698 | 365 ft | 0 kts | 160° |
| 2026-04-15 08:05 | 50.03838 | 8.54698 | 362 ft | 0 kts | 160° |
| 2026-04-15 08:05 | 50.03833 | 8.54701 | 365 ft | 3 kts | 160° |
| 2026-04-15 08:05 | 50.03773 | 8.54726 | 365 ft | 12 kts | 187° |
| 2026-04-15 08:05 | 50.03731 | 8.54624 | 366 ft | 13 kts | 249° |
| 2026-04-15 08:06 | 50.03699 | 8.54493 | 369 ft | 13 kts | 250° |
| 2026-04-15 08:06 | 50.03666 | 8.54356 | 369 ft | 16 kts | 248° |
| 2026-04-15 08:06 | 50.03614 | 8.54134 | 370 ft | 25 kts | 250° |
| 2026-04-15 08:06 | 50.03554 | 8.53888 | 368 ft | 21 kts | 249° |
| 2026-04-15 08:07 | 50.03500 | 8.53663 | 371 ft | 23 kts | 250° |
| 2026-04-15 08:07 | 50.03442 | 8.53417 | 369 ft | 25 kts | 250° |
| 2026-04-15 08:07 | 50.03384 | 8.53166 | 370 ft | 26 kts | 249° |
| 2026-04-15 08:07 | 50.03318 | 8.52899 | 373 ft | 26 kts | 249° |
| 2026-04-15 08:08 | 50.03253 | 8.52662 | 373 ft | 22 kts | 229° |
| 2026-04-15 08:08 | 50.03112 | 8.52596 | 368 ft | 12 kts | 179° |
| 2026-04-15 08:08 | 50.03082 | 8.52597 | 367 ft | 22 kts | 179° |
| 2026-04-15 08:08 | 50.02672 | 8.52604 | 368 ft | 93 kts | 179° |
| 2026-04-15 08:09 | 50.01833 | 8.52635 | 359 ft | 146 kts | 180° |
| 2026-04-15 08:09 | 50.00715 | 8.52629 | 589 ft | 168 kts | 179° |
| 2026-04-15 08:09 | 49.99514 | 8.52686 | 1118 ft | 177 kts | 176° |
| 2026-04-15 08:09 | 49.98241 | 8.52782 | 1644 ft | 191 kts | 175° |
| 2026-04-15 08:10 | 49.96842 | 8.52884 | 2004 ft | 211 kts | 175° |
| 2026-04-15 08:10 | 49.95320 | 8.52991 | 2541 ft | 223 kts | 175° |
| 2026-04-15 08:10 | 49.93759 | 8.53092 | 3309 ft | 229 kts | 175° |
| 2026-04-15 08:10 | 49.92149 | 8.53193 | 3466 ft | 230 kts | 176° |
| 2026-04-15 08:11 | 49.90546 | 8.53295 | 3598 ft | 232 kts | 175° |
| 2026-04-15 08:11 | 49.88921 | 8.53400 | 4164 ft | 235 kts | 176° |
| 2026-04-15 08:11 | 49.87291 | 8.53287 | 5202 ft | 233 kts | 187° |
| 2026-04-15 08:11 | 49.85724 | 8.52607 | 6201 ft | 236 kts | 199° |
| 2026-04-15 08:12 | 49.84127 | 8.51680 | 6852 ft | 255 kts | 199° |
| 2026-04-15 08:12 | 49.82397 | 8.50693 | 7401 ft | 272 kts | 199° |
| 2026-04-15 08:12 | 49.80603 | 8.49679 | 8281 ft | 276 kts | 200° |
| 2026-04-15 08:12 | 49.78809 | 8.48665 | 9188 ft | 280 kts | 202° |
| 2026-04-15 08:13 | 49.77160 | 8.47052 | 10062 ft | 284 kts | 227° |
| 2026-04-15 08:13 | 49.76095 | 8.44460 | 10717 ft | 295 kts | 250° |
| 2026-04-15 08:13 | 49.75777 | 8.41223 | 11011 ft | 318 kts | 274° |
| 2026-04-15 08:13 | 49.76189 | 8.37764 | 11414 ft | 335 kts | 285° |
| 2026-04-15 08:14 | 49.76855 | 8.34277 | 12164 ft | 339 kts | 287° |
| 2026-04-15 08:14 | 49.77543 | 8.30766 | 13025 ft | 342 kts | 286° |
| 2026-04-15 08:14 | 49.78195 | 8.27214 | 13812 ft | 346 kts | 285° |
| 2026-04-15 08:14 | 49.78817 | 8.23586 | 14529 ft | 351 kts | 284° |
| 2026-04-15 08:15 | 49.79420 | 8.19906 | 15197 ft | 355 kts | 284° |
| 2026-04-15 08:15 | 49.80017 | 8.16174 | 15904 ft | 359 kts | 284° |
| 2026-04-15 08:15 | 49.80614 | 8.12412 | 16618 ft | 362 kts | 284° |
| 2026-04-15 08:15 | 49.81217 | 8.08598 | 17258 ft | 366 kts | 284° |
| 2026-04-15 08:16 | 49.81826 | 8.04743 | 17908 ft | 371 kts | 285° |
| 2026-04-15 08:16 | 49.82442 | 8.00846 | 18562 ft | 375 kts | 285° |
| 2026-04-15 08:16 | 49.82851 | 7.98245 | 18936 ft | 377 kts | 285° |
| 2026-04-15 08:16 | 49.83474 | 7.94279 | 19525 ft | 380 kts | 285° |
| 2026-04-15 08:17 | 49.84102 | 7.90274 | 20092 ft | 384 kts | 285° |
| 2026-04-15 08:17 | 49.84733 | 7.86245 | 20652 ft | 387 kts | 285° |
| 2026-04-15 08:17 | 49.85370 | 7.82168 | 21224 ft | 391 kts | 285° |
| 2026-04-15 08:17 | 49.86010 | 7.78058 | 21766 ft | 394 kts | 285° |
| 2026-04-15 08:18 | 49.86659 | 7.73906 | 21972 ft | 397 kts | 285° |
| 2026-04-15 08:18 | 49.87314 | 7.69761 | 22072 ft | 395 kts | 285° |
| 2026-04-15 08:18 | 49.87961 | 7.65611 | 22180 ft | 396 kts | 285° |
| 2026-04-15 08:18 | 49.88604 | 7.61453 | 22261 ft | 397 kts | 285° |
| 2026-04-15 08:19 | 49.89246 | 7.57290 | 22260 ft | 397 kts | 284° |
| 2026-04-15 08:19 | 49.89887 | 7.53122 | 22263 ft | 397 kts | 284° |
| 2026-04-15 08:19 | 49.90525 | 7.48962 | 22261 ft | 397 kts | 284° |
| 2026-04-15 08:19 | 49.91160 | 7.44810 | 22256 ft | 407 kts | 284° |
| 2026-04-15 08:20 | 49.91828 | 7.40444 | 22255 ft | 424 kts | 284° |
| 2026-04-15 08:20 | 49.92520 | 7.35911 | 22266 ft | 440 kts | 284° |
| 2026-04-15 08:20 | 49.93231 | 7.31230 | 22265 ft | 449 kts | 284° |
| 2026-04-15 08:20 | 49.93946 | 7.26506 | 22261 ft | 448 kts | 284° |
| 2026-04-15 08:21 | 49.94653 | 7.21813 | 22264 ft | 447 kts | 284° |
| 2026-04-15 08:21 | 49.95360 | 7.17110 | 22264 ft | 447 kts | 284° |
| 2026-04-15 08:21 | 49.96067 | 7.12394 | 22265 ft | 448 kts | 284° |
| 2026-04-15 08:21 | 49.96769 | 7.07697 | 22261 ft | 441 kts | 284° |
| 2026-04-15 08:22 | 49.97442 | 7.03170 | 22259 ft | 420 kts | 284° |
| 2026-04-15 08:22 | 49.98083 | 6.98851 | 22253 ft | 400 kts | 284° |
| 2026-04-15 08:22 | 49.98722 | 6.94732 | 22241 ft | 388 kts | 288° |
| 2026-04-15 08:22 | 49.99690 | 6.90787 | 22237 ft | 394 kts | 297° |
| 2026-04-15 08:23 | 50.01057 | 6.87109 | 22236 ft | 392 kts | 306° |
| 2026-04-15 08:23 | 50.02723 | 6.83753 | 22239 ft | 392 kts | 309° |
| 2026-04-15 08:23 | 50.04414 | 6.80433 | 22239 ft | 392 kts | 309° |
| 2026-04-15 08:23 | 50.06096 | 6.77104 | 22238 ft | 391 kts | 308° |
| 2026-04-15 08:24 | 50.07777 | 6.73768 | 22236 ft | 391 kts | 308° |
| 2026-04-15 08:24 | 50.09439 | 6.70466 | 22237 ft | 392 kts | 308° |
| 2026-04-15 08:24 | 50.11118 | 6.67130 | 22236 ft | 391 kts | 308° |
| 2026-04-15 08:24 | 50.12799 | 6.63786 | 22235 ft | 391 kts | 308° |
| 2026-04-15 08:25 | 50.14478 | 6.60443 | 22235 ft | 392 kts | 308° |
| 2026-04-15 08:25 | 50.16159 | 6.57090 | 22234 ft | 391 kts | 308° |
| 2026-04-15 08:25 | 50.17837 | 6.53740 | 22227 ft | 392 kts | 308° |
| 2026-04-15 08:25 | 50.19512 | 6.50391 | 22228 ft | 392 kts | 308° |
| 2026-04-15 08:26 | 50.21187 | 6.47039 | 22226 ft | 392 kts | 308° |
| 2026-04-15 08:26 | 50.22861 | 6.43685 | 22227 ft | 392 kts | 308° |
| 2026-04-15 08:26 | 50.24540 | 6.40320 | 22231 ft | 393 kts | 308° |
| 2026-04-15 08:26 | 50.26213 | 6.36959 | 22227 ft | 391 kts | 308° |
| 2026-04-15 08:27 | 50.27881 | 6.33601 | 22229 ft | 391 kts | 308° |
| 2026-04-15 08:27 | 50.29548 | 6.30242 | 22227 ft | 391 kts | 308° |
| 2026-04-15 08:27 | 50.31221 | 6.26867 | 22233 ft | 392 kts | 308° |
| 2026-04-15 08:27 | 50.32870 | 6.23537 | 22232 ft | 392 kts | 308° |
| 2026-04-15 08:28 | 50.34536 | 6.20167 | 22231 ft | 392 kts | 308° |
| 2026-04-15 08:28 | 50.36202 | 6.16793 | 22232 ft | 391 kts | 308° |
| 2026-04-15 08:28 | 50.37866 | 6.13418 | 22232 ft | 391 kts | 308° |
| 2026-04-15 08:28 | 50.39530 | 6.10042 | 22228 ft | 392 kts | 308° |
| 2026-04-15 08:29 | 50.41197 | 6.06654 | 22230 ft | 392 kts | 308° |
| 2026-04-15 08:29 | 50.42861 | 6.03267 | 22227 ft | 392 kts | 308° |
| 2026-04-15 08:29 | 50.44523 | 5.99884 | 22227 ft | 392 kts | 307° |
| 2026-04-15 08:29 | 50.46191 | 5.96485 | 22227 ft | 393 kts | 307° |
| 2026-04-15 08:30 | 50.47853 | 5.93088 | 22223 ft | 392 kts | 307° |
| 2026-04-15 08:30 | 50.49515 | 5.89689 | 22225 ft | 392 kts | 307° |
| 2026-04-15 08:30 | 50.51175 | 5.86286 | 22226 ft | 392 kts | 307° |
| 2026-04-15 08:30 | 50.52831 | 5.82888 | 22225 ft | 392 kts | 307° |
| 2026-04-15 08:31 | 50.54487 | 5.79487 | 22223 ft | 392 kts | 307° |
| 2026-04-15 08:31 | 50.56144 | 5.76077 | 22227 ft | 392 kts | 307° |
| 2026-04-15 08:31 | 50.57855 | 5.72729 | 22226 ft | 393 kts | 311° |
| 2026-04-15 08:31 | 50.59820 | 5.69744 | 22228 ft | 393 kts | 319° |
| 2026-04-15 08:32 | 50.61975 | 5.67182 | 22228 ft | 394 kts | 323° |
| 2026-04-15 08:32 | 50.64200 | 5.64661 | 22223 ft | 394 kts | 323° |
| 2026-04-15 08:32 | 50.66417 | 5.62126 | 22237 ft | 394 kts | 323° |
| 2026-04-15 08:32 | 50.68632 | 5.59587 | 22216 ft | 393 kts | 322° |
| 2026-04-15 08:33 | 50.70835 | 5.57063 | 21941 ft | 390 kts | 322° |
| 2026-04-15 08:33 | 50.73026 | 5.54549 | 21488 ft | 388 kts | 322° |
| 2026-04-15 08:33 | 50.75201 | 5.52051 | 20964 ft | 385 kts | 322° |
| 2026-04-15 08:33 | 50.77356 | 5.49574 | 20438 ft | 381 kts | 322° |
| 2026-04-15 08:34 | 50.79416 | 5.46970 | 19887 ft | 377 kts | 316° |
| 2026-04-15 08:34 | 50.81248 | 5.44041 | 19355 ft | 373 kts | 312° |
| 2026-04-15 08:34 | 50.83046 | 5.41087 | 18833 ft | 371 kts | 313° |
| 2026-04-15 08:34 | 50.84833 | 5.38172 | 18276 ft | 368 kts | 313° |
| 2026-04-15 08:35 | 50.86607 | 5.35275 | 17670 ft | 365 kts | 313° |
| 2026-04-15 08:35 | 50.88367 | 5.32396 | 17086 ft | 363 kts | 313° |
| 2026-04-15 08:35 | 50.90116 | 5.29527 | 16518 ft | 360 kts | 313° |
| 2026-04-15 08:35 | 50.91852 | 5.26677 | 15959 ft | 358 kts | 312° |
| 2026-04-15 08:36 | 50.93574 | 5.23847 | 15429 ft | 355 kts | 312° |
| 2026-04-15 08:36 | 50.95282 | 5.21034 | 14876 ft | 354 kts | 312° |
| 2026-04-15 08:36 | 50.96983 | 5.18228 | 14346 ft | 352 kts | 312° |
| 2026-04-15 08:36 | 50.98675 | 5.15435 | 13824 ft | 349 kts | 312° |
| 2026-04-15 08:37 | 51.00331 | 5.12699 | 13265 ft | 347 kts | 312° |
| 2026-04-15 08:37 | 51.01996 | 5.09945 | 12737 ft | 344 kts | 312° |
| 2026-04-15 08:37 | 51.03639 | 5.07192 | 12194 ft | 342 kts | 309° |
| 2026-04-15 08:37 | 51.04821 | 5.03984 | 11649 ft | 336 kts | 287° |
| 2026-04-15 08:38 | 51.05396 | 5.00421 | 11030 ft | 330 kts | 282° |
| 2026-04-15 08:38 | 51.05914 | 4.96881 | 10370 ft | 325 kts | 281° |
| 2026-04-15 08:38 | 51.06418 | 4.93484 | 10166 ft | 306 kts | 282° |
| 2026-04-15 08:38 | 51.06891 | 4.90295 | 9987 ft | 287 kts | 281° |
| 2026-04-15 08:39 | 51.07343 | 4.87306 | 9824 ft | 269 kts | 281° |
| 2026-04-15 08:39 | 51.07776 | 4.84486 | 9504 ft | 258 kts | 281° |
| 2026-04-15 08:39 | 51.08196 | 4.81721 | 8915 ft | 256 kts | 281° |
| 2026-04-15 08:39 | 51.08621 | 4.78981 | 8358 ft | 255 kts | 281° |
| 2026-04-15 08:40 | 51.09054 | 4.76235 | 7874 ft | 255 kts | 281° |
| 2026-04-15 08:40 | 51.09480 | 4.73503 | 7461 ft | 254 kts | 281° |
| 2026-04-15 08:40 | 51.09904 | 4.70782 | 7066 ft | 253 kts | 281° |
| 2026-04-15 08:40 | 51.10334 | 4.68078 | 6669 ft | 251 kts | 282° |
| 2026-04-15 08:41 | 51.10772 | 4.65390 | 6240 ft | 250 kts | 281° |
| 2026-04-15 08:41 | 51.11203 | 4.62722 | 5840 ft | 248 kts | 281° |
| 2026-04-15 08:41 | 51.11627 | 4.60063 | 5464 ft | 246 kts | 281° |
| 2026-04-15 08:41 | 51.12042 | 4.57447 | 5395 ft | 246 kts | 281° |
| 2026-04-15 08:42 | 51.12461 | 4.54800 | 5621 ft | 247 kts | 281° |
| 2026-04-15 08:42 | 51.12880 | 4.52124 | 5726 ft | 250 kts | 281° |
| 2026-04-15 08:42 | 51.13297 | 4.49456 | 5694 ft | 245 kts | 281° |
| 2026-04-15 08:42 | 51.13711 | 4.46876 | 5545 ft | 237 kts | 281° |
| 2026-04-15 08:43 | 51.14121 | 4.44375 | 5217 ft | 235 kts | 281° |
| 2026-04-15 08:43 | 51.14534 | 4.41862 | 4849 ft | 235 kts | 281° |
| 2026-04-15 08:43 | 51.14949 | 4.39351 | 4484 ft | 234 kts | 281° |
| 2026-04-15 08:43 | 51.15359 | 4.36858 | 4145 ft | 232 kts | 281° |
| 2026-04-15 08:44 | 51.15768 | 4.34384 | 3802 ft | 230 kts | 281° |
| 2026-04-15 08:44 | 51.16174 | 4.31978 | 3671 ft | 219 kts | 281° |
| 2026-04-15 08:44 | 51.16563 | 4.29691 | 3579 ft | 208 kts | 281° |
| 2026-04-15 08:44 | 51.16935 | 4.27551 | 3500 ft | 194 kts | 281° |
| 2026-04-15 08:45 | 51.17303 | 4.25482 | 3121 ft | 193 kts | 281° |
| 2026-04-15 08:45 | 51.17679 | 4.23449 | 3008 ft | 198 kts | 281° |
| 2026-04-15 08:45 | 51.18077 | 4.21340 | 2918 ft | 198 kts | 287° |
| 2026-04-15 08:45 | 51.18707 | 4.19380 | 2912 ft | 201 kts | 294° |
| 2026-04-15 08:46 | 51.19388 | 4.17426 | 2913 ft | 202 kts | 294° |
| 2026-04-15 08:46 | 51.20065 | 4.15485 | 2907 ft | 199 kts | 294° |
| 2026-04-15 08:46 | 51.20732 | 4.13577 | 2820 ft | 195 kts | 294° |
| 2026-04-15 08:46 | 51.21407 | 4.11686 | 2518 ft | 195 kts | 294° |
| 2026-04-15 08:47 | 51.22127 | 4.09851 | 2405 ft | 202 kts | 308° |
| 2026-04-15 08:47 | 51.23348 | 4.08696 | 2398 ft | 210 kts | 345° |
| 2026-04-15 08:47 | 51.24794 | 4.08887 | 2408 ft | 214 kts | 23° |
| 2026-04-15 08:47 | 51.25913 | 4.10367 | 2411 ft | 210 kts | 62° |
| 2026-04-15 08:48 | 51.26276 | 4.12498 | 2404 ft | 201 kts | 99° |
| 2026-04-15 08:48 | 51.25988 | 4.14649 | 2405 ft | 197 kts | 110° |
| 2026-04-15 08:48 | 51.25646 | 4.16745 | 2400 ft | 192 kts | 110° |
| 2026-04-15 08:48 | 51.25307 | 4.18825 | 2402 ft | 194 kts | 110° |
| 2026-04-15 08:49 | 51.24971 | 4.20891 | 2411 ft | 193 kts | 110° |
| 2026-04-15 08:49 | 51.24632 | 4.22982 | 2406 ft | 188 kts | 110° |
| 2026-04-15 08:49 | 51.24346 | 4.24839 | 2415 ft | 162 kts | 110° |
| 2026-04-15 08:49 | 51.24071 | 4.26627 | 2412 ft | 166 kts | 110° |
| 2026-04-15 08:50 | 51.23800 | 4.28406 | 2413 ft | 164 kts | 110° |
| 2026-04-15 08:50 | 51.23528 | 4.30164 | 2416 ft | 163 kts | 110° |
| 2026-04-15 08:50 | 51.23251 | 4.31926 | 2377 ft | 164 kts | 111° |
| 2026-04-15 08:50 | 51.22931 | 4.33642 | 2151 ft | 159 kts | 117° |
| 2026-04-15 08:51 | 51.22485 | 4.35236 | 1875 ft | 155 kts | 124° |
| 2026-04-15 08:51 | 51.21996 | 4.36687 | 1575 ft | 145 kts | 127° |
| 2026-04-15 08:51 | 51.21461 | 4.38034 | 1312 ft | 143 kts | 128° |
| 2026-04-15 08:51 | 51.20929 | 4.39369 | 1074 ft | 142 kts | 127° |
| 2026-04-15 08:52 | 51.20436 | 4.40732 | 875 ft | 142 kts | 123° |
| 2026-04-15 08:52 | 51.19995 | 4.42153 | 595 ft | 146 kts | 119° |
| 2026-04-15 08:52 | 51.19619 | 4.43671 | 379 ft | 144 kts | 116° |
| 2026-04-15 08:52 | 51.19270 | 4.45132 | 119 ft | 140 kts | 114° |
| 2026-04-15 08:53 | 51.18958 | 4.46489 | 45 ft | 109 kts | 110° |
| 2026-04-15 08:53 | 51.18834 | 4.47034 | 41 ft | 27 kts | 110° |
| 2026-04-15 08:53 | 51.18733 | 4.47110 | 39 ft | 15 kts | 173° |
| 2026-04-15 08:53 | 51.18723 | 4.47112 | 38 ft | 0 kts | 172° |